Rechercher aéroport 
image banner adimage banner adimage banner ad
image banner ad

81L - Sheriff's Wayside

Situé à Valencia, United States

ICAO - 81L, IATA -

Données fournies par Airmate  

Information générale

Coordonnées: N34°27'49" W118°36'35"
Élévation : 1200 feet MSL.
Variation magnétique : 14° East
Voir autres Aéroports à California

Données opérationnelles

Special qualification required
Heure actuelle UTC:
Heure actuelle locale:
Météo à : KWHP - Whiteman ( 29 km )
METAR: KWHP 262255Z 11006KT 7SM HZ OVC060 24/17 A2996
Voir NOTAMs / SUP AIP / TFR affectant cet aéroport [VIEW]
Fréquences de communication: [VIEW]

Pistes:

Coordonnées de l'aéroport

Adresse: Valencia United States

Vue satellite de 81L